sensor_id;sensor_type;location;lat;lon;timestamp;P1;durP1;ratioP1;P2;durP2;ratioP2
22697;SDS011;11516;51.612;7.510;2022-08-01T00:01:44;1.20;;;1.10;;
22697;SDS011;11516;51.612;7.510;2022-08-01T00:04:10;1.53;;;1.20;;
22697;SDS011;11516;51.612;7.510;2022-08-01T00:06:35;1.07;;;1.07;;
22697;SDS011;11516;51.612;7.510;2022-08-01T00:09:01;10.90;;;2.00;;
22697;SDS011;11516;51.612;7.510;2022-08-01T00:11:26;2.45;;;1.10;;
22697;SDS011;11516;51.612;7.510;2022-08-01T00:13:52;1.67;;;1.50;;
22697;SDS011;11516;51.612;7.510;2022-08-01T00:16:18;4.30;;;1.98;;
22697;SDS011;11516;51.612;7.510;2022-08-01T00:18:43;1.27;;;1.13;;
22697;SDS011;11516;51.612;7.510;2022-08-01T00:21:09;1.00;;;1.00;;
22697;SDS011;11516;51.612;7.510;2022-08-01T00:23:35;3.00;;;1.50;;
22697;SDS011;11516;51.612;7.510;2022-08-01T00:26:00;1.23;;;1.13;;
22697;SDS011;11516;51.612;7.510;2022-08-01T00:28:26;1.80;;;1.70;;
22697;SDS011;11516;51.612;7.510;2022-08-01T00:30:52;1.33;;;1.23;;
22697;SDS011;11516;51.612;7.510;2022-08-01T00:33:17;1.77;;;1.67;;
22697;SDS011;11516;51.612;7.510;2022-08-01T00:35:43;2.20;;;1.15;;
22697;SDS011;11516;51.612;7.510;2022-08-01T00:38:08;1.65;;;1.55;;
22697;SDS011;11516;51.612;7.510;2022-08-01T00:40:34;1.40;;;1.35;;
22697;SDS011;11516;51.612;7.510;2022-08-01T00:43:00;1.92;;;1.83;;
22697;SDS011;11516;51.612;7.510;2022-08-01T00:45:25;1.80;;;1.50;;
22697;SDS011;11516;51.612;7.510;2022-08-01T00:47:51;1.57;;;1.47;;
22697;SDS011;11516;51.612;7.510;2022-08-01T00:50:16;2.07;;;1.87;;
22697;SDS011;11516;51.612;7.510;2022-08-01T00:52:42;2.30;;;2.10;;
22697;SDS011;11516;51.612;7.510;2022-08-01T00:55:09;1.42;;;1.33;;
22697;SDS011;11516;51.612;7.510;2022-08-01T00:57:36;1.25;;;1.23;;
22697;SDS011;11516;51.612;7.510;2022-08-01T01:00:03;2.10;;;1.60;;
22697;SDS011;11516;51.612;7.510;2022-08-01T01:02:29;0.97;;;0.97;;
22697;SDS011;11516;51.612;7.510;2022-08-01T01:04:55;1.47;;;1.30;;
22697;SDS011;11516;51.612;7.510;2022-08-01T01:07:37;1.27;;;1.20;;
22697;SDS011;11516;51.612;7.510;2022-08-01T01:13:41;1.35;;;1.27;;
22697;SDS011;11516;51.612;7.510;2022-08-01T01:16:12;2.03;;;1.88;;
22697;SDS011;11516;51.612;7.510;2022-08-01T01:18:55;1.40;;;0.98;;
22697;SDS011;11516;51.612;7.510;2022-08-01T01:21:29;1.27;;;1.17;;
22697;SDS011;11516;51.612;7.510;2022-08-01T01:24:25;1.40;;;1.30;;
22697;SDS011;11516;51.612;7.510;2022-08-01T01:29:48;2.28;;;1.75;;
22697;SDS011;11516;51.612;7.510;2022-08-01T01:32:29;1.30;;;1.30;;
22697;SDS011;11516;51.612;7.510;2022-08-01T01:35:26;3.00;;;1.60;;
22697;SDS011;11516;51.612;7.510;2022-08-01T01:38:04;1.10;;;1.10;;
22697;SDS011;11516;51.612;7.510;2022-08-01T01:40:37;1.30;;;1.20;;
22697;SDS011;11516;51.612;7.510;2022-08-01T01:43:04;1.20;;;1.08;;
22697;SDS011;11516;51.612;7.510;2022-08-01T01:45:33;1.50;;;1.40;;
22697;SDS011;11516;51.612;7.510;2022-08-01T01:47:58;1.50;;;1.17;;
22697;SDS011;11516;51.612;7.510;2022-08-01T01:50:26;1.65;;;1.55;;
22697;SDS011;11516;51.612;7.510;2022-08-01T01:52:53;0.68;;;0.68;;
22697;SDS011;11516;51.612;7.510;2022-08-01T01:55:20;1.73;;;1.42;;
22697;SDS011;11516;51.612;7.510;2022-08-01T01:57:48;1.73;;;1.63;;
22697;SDS011;11516;51.612;7.510;2022-08-01T02:00:16;1.53;;;1.43;;
22697;SDS011;11516;51.612;7.510;2022-08-01T02:02:43;0.90;;;0.90;;
22697;SDS011;11516;51.612;7.510;2022-08-01T02:05:11;3.63;;;1.90;;
22697;SDS011;11516;51.612;7.510;2022-08-01T02:07:37;2.53;;;1.63;;
22697;SDS011;11516;51.612;7.510;2022-08-01T02:10:05;1.60;;;1.48;;
22697;SDS011;11516;51.612;7.510;2022-08-01T02:12:33;0.90;;;0.90;;
22697;SDS011;11516;51.612;7.510;2022-08-01T02:15:02;1.45;;;1.35;;
22697;SDS011;11516;51.612;7.510;2022-08-01T02:17:29;1.02;;;0.98;;
22697;SDS011;11516;51.612;7.510;2022-08-01T02:19:56;2.13;;;2.03;;
22697;SDS011;11516;51.612;7.510;2022-08-01T02:22:27;1.95;;;1.30;;
22697;SDS011;11516;51.612;7.510;2022-08-01T02:25:06;2.33;;;1.75;;
22697;SDS011;11516;51.612;7.510;2022-08-01T02:30:26;1.88;;;1.77;;
22697;SDS011;11516;51.612;7.510;2022-08-01T02:32:59;1.60;;;1.50;;
22697;SDS011;11516;51.612;7.510;2022-08-01T02:35:38;1.27;;;1.17;;
22697;SDS011;11516;51.612;7.510;2022-08-01T02:38:09;1.05;;;1.05;;
22697;SDS011;11516;51.612;7.510;2022-08-01T02:40:37;1.80;;;1.70;;
22697;SDS011;11516;51.612;7.510;2022-08-01T02:43:05;1.60;;;1.50;;
22697;SDS011;11516;51.612;7.510;2022-08-01T02:45:33;0.93;;;0.93;;
22697;SDS011;11516;51.612;7.510;2022-08-01T02:48:05;2.67;;;2.50;;
22697;SDS011;11516;51.612;7.510;2022-08-01T02:50:34;1.48;;;1.40;;
22697;SDS011;11516;51.612;7.510;2022-08-01T02:53:01;1.55;;;1.45;;
22697;SDS011;11516;51.612;7.510;2022-08-01T02:55:31;1.85;;;1.75;;
22697;SDS011;11516;51.612;7.510;2022-08-01T02:57:57;2.75;;;0.95;;
22697;SDS011;11516;51.612;7.510;2022-08-01T03:00:25;3.78;;;1.95;;
22697;SDS011;11516;51.612;7.510;2022-08-01T03:02:52;1.37;;;1.30;;
22697;SDS011;11516;51.612;7.510;2022-08-01T03:05:20;1.02;;;1.02;;
22697;SDS011;11516;51.612;7.510;2022-08-01T03:07:46;3.05;;;1.40;;
22697;SDS011;11516;51.612;7.510;2022-08-01T03:10:13;1.38;;;1.30;;
22697;SDS011;11516;51.612;7.510;2022-08-01T03:12:41;1.13;;;1.13;;
22697;SDS011;11516;51.612;7.510;2022-08-01T03:15:07;1.27;;;1.27;;
22697;SDS011;11516;51.612;7.510;2022-08-01T03:17:35;1.53;;;1.43;;
22697;SDS011;11516;51.612;7.510;2022-08-01T03:20:03;2.20;;;1.20;;
22697;SDS011;11516;51.612;7.510;2022-08-01T03:22:29;2.03;;;1.73;;
22697;SDS011;11516;51.612;7.510;2022-08-01T03:24:58;4.35;;;2.22;;
22697;SDS011;11516;51.612;7.510;2022-08-01T03:27:25;1.27;;;1.17;;
22697;SDS011;11516;51.612;7.510;2022-08-01T03:29:51;1.40;;;1.30;;
22697;SDS011;11516;51.612;7.510;2022-08-01T03:32:19;2.88;;;1.27;;
22697;SDS011;11516;51.612;7.510;2022-08-01T03:34:46;0.90;;;0.90;;
22697;SDS011;11516;51.612;7.510;2022-08-01T03:37:17;1.95;;;1.35;;
22697;SDS011;11516;51.612;7.510;2022-08-01T03:39:49;1.15;;;1.15;;
22697;SDS011;11516;51.612;7.510;2022-08-01T03:42:20;1.80;;;1.00;;
22697;SDS011;11516;51.612;7.510;2022-08-01T03:44:52;0.43;;;0.43;;
22697;SDS011;11516;51.612;7.510;2022-08-01T03:47:22;0.82;;;0.82;;
22697;SDS011;11516;51.612;7.510;2022-08-01T03:49:50;1.10;;;1.10;;
22697;SDS011;11516;51.612;7.510;2022-08-01T03:52:17;0.60;;;0.60;;
22697;SDS011;11516;51.612;7.510;2022-08-01T03:54:46;3.03;;;1.33;;
22697;SDS011;11516;51.612;7.510;2022-08-01T03:57:14;0.95;;;0.95;;
22697;SDS011;11516;51.612;7.510;2022-08-01T03:59:40;1.13;;;0.98;;
22697;SDS011;11516;51.612;7.510;2022-08-01T04:02:07;1.67;;;1.48;;
22697;SDS011;11516;51.612;7.510;2022-08-01T04:04:33;1.50;;;1.27;;
22697;SDS011;11516;51.612;7.510;2022-08-01T04:06:59;1.40;;;1.30;;
22697;SDS011;11516;51.612;7.510;2022-08-01T04:09:29;1.30;;;1.20;;
22697;SDS011;11516;51.612;7.510;2022-08-01T04:11:56;0.93;;;0.93;;
22697;SDS011;11516;51.612;7.510;2022-08-01T04:14:22;0.85;;;0.85;;
22697;SDS011;11516;51.612;7.510;2022-08-01T04:16:48;1.40;;;1.30;;
22697;SDS011;11516;51.612;7.510;2022-08-01T04:19:14;1.40;;;1.30;;
22697;SDS011;11516;51.612;7.510;2022-08-01T04:21:40;0.75;;;0.75;;
22697;SDS011;11516;51.612;7.510;2022-08-01T04:24:12;1.05;;;0.95;;
22697;SDS011;11516;51.612;7.510;2022-08-01T04:26:41;0.63;;;0.63;;
22697;SDS011;11516;51.612;7.510;2022-08-01T04:29:09;5.38;;;0.80;;
22697;SDS011;11516;51.612;7.510;2022-08-01T04:31:35;1.23;;;0.98;;
22697;SDS011;11516;51.612;7.510;2022-08-01T04:34:04;1.25;;;1.15;;
22697;SDS011;11516;51.612;7.510;2022-08-01T04:36:32;0.55;;;0.55;;
22697;SDS011;11516;51.612;7.510;2022-08-01T04:39:00;1.08;;;1.08;;
22697;SDS011;11516;51.612;7.510;2022-08-01T04:41:27;0.73;;;0.73;;
22697;SDS011;11516;51.612;7.510;2022-08-01T04:43:56;5.50;;;1.77;;
22697;SDS011;11516;51.612;7.510;2022-08-01T04:46:24;1.00;;;1.00;;
22697;SDS011;11516;51.612;7.510;2022-08-01T04:48:51;0.90;;;0.90;;
22697;SDS011;11516;51.612;7.510;2022-08-01T04:51:17;3.60;;;1.52;;
22697;SDS011;11516;51.612;7.510;2022-08-01T04:53:46;1.50;;;1.40;;
22697;SDS011;11516;51.612;7.510;2022-08-01T04:56:12;0.67;;;0.67;;
22697;SDS011;11516;51.612;7.510;2022-08-01T04:58:39;0.82;;;0.82;;
22697;SDS011;11516;51.612;7.510;2022-08-01T05:01:06;1.60;;;1.50;;
22697;SDS011;11516;51.612;7.510;2022-08-01T05:03:31;0.60;;;0.60;;
22697;SDS011;11516;51.612;7.510;2022-08-01T05:05:57;0.70;;;0.70;;
22697;SDS011;11516;51.612;7.510;2022-08-01T05:08:22;3.90;;;1.50;;
22697;SDS011;11516;51.612;7.510;2022-08-01T05:10:48;1.83;;;1.70;;
22697;SDS011;11516;51.612;7.510;2022-08-01T05:13:14;0.87;;;0.87;;
22697;SDS011;11516;51.612;7.510;2022-08-01T05:15:39;1.20;;;0.93;;
22697;SDS011;11516;51.612;7.510;2022-08-01T05:18:05;1.43;;;1.33;;
22697;SDS011;11516;51.612;7.510;2022-08-01T05:20:31;0.77;;;0.77;;
22697;SDS011;11516;51.612;7.510;2022-08-01T05:22:57;0.65;;;0.55;;
22697;SDS011;11516;51.612;7.510;2022-08-01T05:25:23;1.27;;;1.27;;
22697;SDS011;11516;51.612;7.510;2022-08-01T05:27:48;1.57;;;1.47;;
22697;SDS011;11516;51.612;7.510;2022-08-01T05:30:14;1.13;;;1.03;;
22697;SDS011;11516;51.612;7.510;2022-08-01T05:32:40;0.47;;;0.47;;
22697;SDS011;11516;51.612;7.510;2022-08-01T05:35:06;0.90;;;0.85;;
22697;SDS011;11516;51.612;7.510;2022-08-01T05:37:33;0.68;;;0.68;;
22697;SDS011;11516;51.612;7.510;2022-08-01T05:40:00;0.55;;;0.55;;
22697;SDS011;11516;51.612;7.510;2022-08-01T05:42:26;0.60;;;0.60;;
22697;SDS011;11516;51.612;7.510;2022-08-01T05:44:52;0.90;;;0.90;;
22697;SDS011;11516;51.612;7.510;2022-08-01T05:47:18;0.60;;;0.60;;
22697;SDS011;11516;51.612;7.510;2022-08-01T05:49:44;1.27;;;1.23;;
22697;SDS011;11516;51.612;7.510;2022-08-01T05:52:11;1.10;;;1.00;;
22697;SDS011;11516;51.612;7.510;2022-08-01T05:54:36;1.00;;;1.00;;
22697;SDS011;11516;51.612;7.510;2022-08-01T05:57:02;0.35;;;0.35;;
22697;SDS011;11516;51.612;7.510;2022-08-01T05:59:28;1.00;;;0.57;;
22697;SDS011;11516;51.612;7.510;2022-08-01T06:01:54;0.40;;;0.40;;
22697;SDS011;11516;51.612;7.510;2022-08-01T06:04:20;0.87;;;0.87;;
22697;SDS011;11516;51.612;7.510;2022-08-01T06:06:46;0.40;;;0.40;;
22697;SDS011;11516;51.612;7.510;2022-08-01T06:09:12;1.30;;;1.00;;
22697;SDS011;11516;51.612;7.510;2022-08-01T06:11:38;0.65;;;0.60;;
22697;SDS011;11516;51.612;7.510;2022-08-01T06:14:03;0.90;;;0.52;;
22697;SDS011;11516;51.612;7.510;2022-08-01T06:16:29;0.80;;;0.80;;
22697;SDS011;11516;51.612;7.510;2022-08-01T06:18:54;0.50;;;0.50;;
22697;SDS011;11516;51.612;7.510;2022-08-01T06:21:20;0.50;;;0.50;;
22697;SDS011;11516;51.612;7.510;2022-08-01T06:23:45;0.30;;;0.30;;
22697;SDS011;11516;51.612;7.510;2022-08-01T06:26:11;2.57;;;1.63;;
22697;SDS011;11516;51.612;7.510;2022-08-01T06:28:37;1.43;;;1.03;;
22697;SDS011;11516;51.612;7.510;2022-08-01T06:31:03;0.73;;;0.73;;
22697;SDS011;11516;51.612;7.510;2022-08-01T06:33:29;0.55;;;0.55;;
22697;SDS011;11516;51.612;7.510;2022-08-01T06:35:54;0.28;;;0.28;;
22697;SDS011;11516;51.612;7.510;2022-08-01T06:38:20;0.28;;;0.28;;
22697;SDS011;11516;51.612;7.510;2022-08-01T06:40:45;1.73;;;1.03;;
22697;SDS011;11516;51.612;7.510;2022-08-01T06:43:11;0.60;;;0.60;;
22697;SDS011;11516;51.612;7.510;2022-08-01T06:45:37;0.80;;;0.80;;
22697;SDS011;11516;51.612;7.510;2022-08-01T06:48:03;1.02;;;0.57;;
22697;SDS011;11516;51.612;7.510;2022-08-01T06:50:30;0.68;;;0.68;;
22697;SDS011;11516;51.612;7.510;2022-08-01T06:52:55;1.07;;;0.97;;
22697;SDS011;11516;51.612;7.510;2022-08-01T06:55:21;1.70;;;1.60;;
22697;SDS011;11516;51.612;7.510;2022-08-01T06:57:47;1.23;;;1.23;;
22697;SDS011;11516;51.612;7.510;2022-08-01T07:00:14;0.60;;;0.60;;
22697;SDS011;11516;51.612;7.510;2022-08-01T07:02:41;0.52;;;0.52;;
22697;SDS011;11516;51.612;7.510;2022-08-01T07:05:07;0.63;;;0.63;;
22697;SDS011;11516;51.612;7.510;2022-08-01T07:07:34;0.53;;;0.53;;
22697;SDS011;11516;51.612;7.510;2022-08-01T07:09:59;1.30;;;1.10;;
22697;SDS011;11516;51.612;7.510;2022-08-01T07:12:25;0.40;;;0.40;;
22697;SDS011;11516;51.612;7.510;2022-08-01T07:14:50;0.73;;;0.67;;
22697;SDS011;11516;51.612;7.510;2022-08-01T07:17:16;0.80;;;0.52;;
22697;SDS011;11516;51.612;7.510;2022-08-01T07:19:41;0.60;;;0.60;;
22697;SDS011;11516;51.612;7.510;2022-08-01T07:22:07;1.27;;;0.97;;
22697;SDS011;11516;51.612;7.510;2022-08-01T07:24:32;0.83;;;0.83;;
22697;SDS011;11516;51.612;7.510;2022-08-01T07:26:58;0.60;;;0.60;;
22697;SDS011;11516;51.612;7.510;2022-08-01T07:29:24;0.60;;;0.60;;
22697;SDS011;11516;51.612;7.510;2022-08-01T07:31:50;0.20;;;0.20;;
22697;SDS011;11516;51.612;7.510;2022-08-01T07:34:17;0.43;;;0.43;;
22697;SDS011;11516;51.612;7.510;2022-08-01T07:36:43;1.70;;;1.10;;
22697;SDS011;11516;51.612;7.510;2022-08-01T07:39:08;1.60;;;0.53;;
22697;SDS011;11516;51.612;7.510;2022-08-01T07:41:34;0.07;;;0.07;;
22697;SDS011;11516;51.612;7.510;2022-08-01T07:43:59;0.43;;;0.43;;
22697;SDS011;11516;51.612;7.510;2022-08-01T07:46:25;1.90;;;0.55;;
22697;SDS011;11516;51.612;7.510;2022-08-01T07:48:51;0.27;;;0.27;;
22697;SDS011;11516;51.612;7.510;2022-08-01T07:51:16;0.47;;;0.47;;
22697;SDS011;11516;51.612;7.510;2022-08-01T07:53:42;0.90;;;0.60;;
22697;SDS011;11516;51.612;7.510;2022-08-01T07:56:07;0.47;;;0.47;;
22697;SDS011;11516;51.612;7.510;2022-08-01T07:58:33;0.50;;;0.50;;
22697;SDS011;11516;51.612;7.510;2022-08-01T08:00:59;1.30;;;1.20;;
22697;SDS011;11516;51.612;7.510;2022-08-01T08:03:25;0.60;;;0.33;;
22697;SDS011;11516;51.612;7.510;2022-08-01T08:05:51;0.82;;;0.82;;
22697;SDS011;11516;51.612;7.510;2022-08-01T08:08:17;0.28;;;0.28;;
22697;SDS011;11516;51.612;7.510;2022-08-01T08:10:43;0.60;;;0.60;;
22697;SDS011;11516;51.612;7.510;2022-08-01T08:13:08;0.60;;;0.40;;
22697;SDS011;11516;51.612;7.510;2022-08-01T08:15:34;0.40;;;0.40;;
22697;SDS011;11516;51.612;7.510;2022-08-01T08:17:59;0.10;;;0.10;;
22697;SDS011;11516;51.612;7.510;2022-08-01T08:20:25;0.40;;;0.40;;
22697;SDS011;11516;51.612;7.510;2022-08-01T08:22:53;0.40;;;0.20;;
22697;SDS011;11516;51.612;7.510;2022-08-01T08:25:19;0.38;;;0.17;;
22697;SDS011;11516;51.612;7.510;2022-08-01T08:27:45;0.20;;;0.20;;
22697;SDS011;11516;51.612;7.510;2022-08-01T08:30:11;0.10;;;0.10;;
22697;SDS011;11516;51.612;7.510;2022-08-01T08:32:37;0.20;;;0.20;;
22697;SDS011;11516;51.612;7.510;2022-08-01T08:35:03;0.13;;;0.13;;
22697;SDS011;11516;51.612;7.510;2022-08-01T08:37:29;0.15;;;0.15;;
22697;SDS011;11516;51.612;7.510;2022-08-01T08:39:55;4.67;;;0.77;;
22697;SDS011;11516;51.612;7.510;2022-08-01T08:42:21;0.30;;;0.30;;
22697;SDS011;11516;51.612;7.510;2022-08-01T08:44:47;0.20;;;0.20;;
22697;SDS011;11516;51.612;7.510;2022-08-01T08:47:13;0.30;;;0.30;;
22697;SDS011;11516;51.612;7.510;2022-08-01T08:49:39;0.40;;;0.40;;
22697;SDS011;11516;51.612;7.510;2022-08-01T08:52:08;0.35;;;0.35;;
22697;SDS011;11516;51.612;7.510;2022-08-01T08:54:34;0.68;;;0.57;;
22697;SDS011;11516;51.612;7.510;2022-08-01T08:57:02;0.20;;;0.20;;
22697;SDS011;11516;51.612;7.510;2022-08-01T08:59:28;0.17;;;0.17;;
22697;SDS011;11516;51.612;7.510;2022-08-01T09:01:54;0.47;;;0.47;;
22697;SDS011;11516;51.612;7.510;2022-08-01T09:04:23;0.23;;;0.23;;
22697;SDS011;11516;51.612;7.510;2022-08-01T09:06:50;1.13;;;0.80;;
22697;SDS011;11516;51.612;7.510;2022-08-01T09:09:16;0.10;;;0.10;;
22697;SDS011;11516;51.612;7.510;2022-08-01T09:11:42;0.20;;;0.20;;
22697;SDS011;11516;51.612;7.510;2022-08-01T09:16:38;0.20;;;0.20;;
22697;SDS011;11516;51.612;7.510;2022-08-01T09:19:08;0.10;;;0.10;;
22697;SDS011;11516;51.612;7.510;2022-08-01T09:21:36;0.38;;;0.38;;
22697;SDS011;11516;51.612;7.510;2022-08-01T09:24:02;0.25;;;0.25;;
22697;SDS011;11516;51.612;7.510;2022-08-01T09:29:03;0.17;;;0.17;;
22697;SDS011;11516;51.612;7.510;2022-08-01T09:31:39;0.40;;;0.40;;
22697;SDS011;11516;51.612;7.510;2022-08-01T09:34:06;0.50;;;0.30;;
22697;SDS011;11516;51.612;7.510;2022-08-01T09:36:44;0.15;;;0.15;;
22697;SDS011;11516;51.612;7.510;2022-08-01T09:39:19;1.70;;;0.60;;
22697;SDS011;11516;51.612;7.510;2022-08-01T09:41:46;0.40;;;0.40;;
22697;SDS011;11516;51.612;7.510;2022-08-01T09:44:12;0.40;;;0.30;;
22697;SDS011;11516;51.612;7.510;2022-08-01T09:46:56;0.40;;;0.30;;
22697;SDS011;11516;51.612;7.510;2022-08-01T09:49:32;4.78;;;2.88;;
22697;SDS011;11516;51.612;7.510;2022-08-01T09:52:10;2.35;;;1.90;;
22697;SDS011;11516;51.612;7.510;2022-08-01T09:54:41;2.88;;;2.42;;
22697;SDS011;11516;51.612;7.510;2022-08-01T09:57:17;2.08;;;1.90;;
22697;SDS011;11516;51.612;7.510;2022-08-01T09:59:46;1.55;;;1.45;;
22697;SDS011;11516;51.612;7.510;2022-08-01T10:02:26;1.80;;;1.70;;
22697;SDS011;11516;51.612;7.510;2022-08-01T10:04:58;2.05;;;1.85;;
22697;SDS011;11516;51.612;7.510;2022-08-01T10:07:25;2.25;;;1.67;;
22697;SDS011;11516;51.612;7.510;2022-08-01T10:09:50;1.60;;;1.50;;
22697;SDS011;11516;51.612;7.510;2022-08-01T10:12:20;2.80;;;1.50;;
22697;SDS011;11516;51.612;7.510;2022-08-01T10:14:48;2.92;;;1.60;;
22697;SDS011;11516;51.612;7.510;2022-08-01T10:17:15;1.13;;;1.08;;
22697;SDS011;11516;51.612;7.510;2022-08-01T10:19:43;2.10;;;1.90;;
22697;SDS011;11516;51.612;7.510;2022-08-01T10:22:10;1.30;;;1.20;;
22697;SDS011;11516;51.612;7.510;2022-08-01T10:24:42;1.15;;;1.05;;
22697;SDS011;11516;51.612;7.510;2022-08-01T10:27:11;1.27;;;1.17;;
22697;SDS011;11516;51.612;7.510;2022-08-01T10:29:51;0.80;;;0.80;;
22697;SDS011;11516;51.612;7.510;2022-08-01T10:32:28;0.95;;;0.90;;
22697;SDS011;11516;51.612;7.510;2022-08-01T10:34:55;0.60;;;0.60;;
22697;SDS011;11516;51.612;7.510;2022-08-01T10:37:22;0.70;;;0.70;;
22697;SDS011;11516;51.612;7.510;2022-08-01T10:39:48;0.80;;;0.63;;
22697;SDS011;11516;51.612;7.510;2022-08-01T10:42:16;2.00;;;1.90;;
22697;SDS011;11516;51.612;7.510;2022-08-01T10:44:46;2.10;;;1.10;;
22697;SDS011;11516;51.612;7.510;2022-08-01T10:47:21;0.80;;;0.80;;
22697;SDS011;11516;51.612;7.510;2022-08-01T10:50:29;1.23;;;1.13;;
22697;SDS011;11516;51.612;7.510;2022-08-01T10:58:21;0.75;;;0.75;;
22697;SDS011;11516;51.612;7.510;2022-08-01T11:00:49;0.70;;;0.70;;
22697;SDS011;11516;51.612;7.510;2022-08-01T11:03:42;0.70;;;0.70;;
22697;SDS011;11516;51.612;7.510;2022-08-01T11:09:00;0.40;;;0.40;;
22697;SDS011;11516;51.612;7.510;2022-08-01T11:11:28;0.30;;;0.30;;
22697;SDS011;11516;51.612;7.510;2022-08-01T11:16:33;0.30;;;0.30;;
22697;SDS011;11516;51.612;7.510;2022-08-01T11:19:00;1.30;;;0.40;;
22697;SDS011;11516;51.612;7.510;2022-08-01T11:27:17;0.22;;;0.22;;
22697;SDS011;11516;51.612;7.510;2022-08-01T11:32:46;1.00;;;0.40;;
22697;SDS011;11516;51.612;7.510;2022-08-01T11:35:12;0.90;;;0.43;;
22697;SDS011;11516;51.612;7.510;2022-08-01T11:37:41;0.80;;;0.80;;
22697;SDS011;11516;51.612;7.510;2022-08-01T11:40:20;0.60;;;0.60;;
22697;SDS011;11516;51.612;7.510;2022-08-01T11:45:50;0.80;;;0.80;;
22697;SDS011;11516;51.612;7.510;2022-08-01T11:48:21;0.98;;;0.98;;
22697;SDS011;11516;51.612;7.510;2022-08-01T11:50:50;1.10;;;1.10;;
22697;SDS011;11516;51.612;7.510;2022-08-01T11:53:22;0.88;;;0.70;;
22697;SDS011;11516;51.612;7.510;2022-08-01T11:55:53;0.65;;;0.65;;
22697;SDS011;11516;51.612;7.510;2022-08-01T11:58:23;0.85;;;0.85;;
22697;SDS011;11516;51.612;7.510;2022-08-01T12:00:51;0.70;;;0.70;;
22697;SDS011;11516;51.612;7.510;2022-08-01T12:03:24;0.50;;;0.50;;
22697;SDS011;11516;51.612;7.510;2022-08-01T12:05:55;0.40;;;0.40;;
22697;SDS011;11516;51.612;7.510;2022-08-01T12:08:28;1.00;;;0.60;;
22697;SDS011;11516;51.612;7.510;2022-08-01T12:10:57;0.85;;;0.85;;
22697;SDS011;11516;51.612;7.510;2022-08-01T12:13:24;1.27;;;0.90;;
22697;SDS011;11516;51.612;7.510;2022-08-01T12:15:51;1.20;;;1.10;;
22697;SDS011;11516;51.612;7.510;2022-08-01T12:18:19;0.70;;;0.70;;
22697;SDS011;11516;51.612;7.510;2022-08-01T12:20:48;1.65;;;1.48;;
22697;SDS011;11516;51.612;7.510;2022-08-01T12:23:14;2.60;;;1.90;;
22697;SDS011;11516;51.612;7.510;2022-08-01T12:25:43;1.58;;;1.48;;
22697;SDS011;11516;51.612;7.510;2022-08-01T12:28:09;0.70;;;0.60;;
22697;SDS011;11516;51.612;7.510;2022-08-01T12:30:37;0.90;;;0.50;;
22697;SDS011;11516;51.612;7.510;2022-08-01T12:33:04;0.80;;;0.43;;
22697;SDS011;11516;51.612;7.510;2022-08-01T12:35:32;0.95;;;0.63;;
22697;SDS011;11516;51.612;7.510;2022-08-01T12:38:03;0.68;;;0.68;;
22697;SDS011;11516;51.612;7.510;2022-08-01T12:40:35;0.55;;;0.55;;
22697;SDS011;11516;51.612;7.510;2022-08-01T12:43:06;0.60;;;0.50;;
22697;SDS011;11516;51.612;7.510;2022-08-01T12:45:37;0.90;;;0.90;;
22697;SDS011;11516;51.612;7.510;2022-08-01T12:48:07;1.50;;;0.85;;
22697;SDS011;11516;51.612;7.510;2022-08-01T12:50:36;0.85;;;0.80;;
22697;SDS011;11516;51.612;7.510;2022-08-01T12:53:03;1.05;;;0.90;;
22697;SDS011;11516;51.612;7.510;2022-08-01T12:55:29;0.73;;;0.73;;
22697;SDS011;11516;51.612;7.510;2022-08-01T12:58:06;2.10;;;0.60;;
22697;SDS011;11516;51.612;7.510;2022-08-01T13:00:35;1.10;;;0.73;;
22697;SDS011;11516;51.612;7.510;2022-08-01T13:03:09;1.42;;;0.70;;
22697;SDS011;11516;51.612;7.510;2022-08-01T13:05:43;1.33;;;1.00;;
22697;SDS011;11516;51.612;7.510;2022-08-01T13:08:12;1.40;;;1.30;;
22697;SDS011;11516;51.612;7.510;2022-08-01T13:10:40;1.33;;;1.23;;
22697;SDS011;11516;51.612;7.510;2022-08-01T13:13:10;1.50;;;1.40;;
22697;SDS011;11516;51.612;7.510;2022-08-01T13:15:37;2.38;;;1.92;;
22697;SDS011;11516;51.612;7.510;2022-08-01T13:21:12;1.00;;;1.00;;
22697;SDS011;11516;51.612;7.510;2022-08-01T13:23:59;2.80;;;1.55;;
22697;SDS011;11516;51.612;7.510;2022-08-01T13:29:14;2.13;;;1.70;;
22697;SDS011;11516;51.612;7.510;2022-08-01T13:31:42;4.20;;;1.90;;
22697;SDS011;11516;51.612;7.510;2022-08-01T13:34:08;2.95;;;1.92;;
22697;SDS011;11516;51.612;7.510;2022-08-01T13:36:34;4.10;;;2.97;;
22697;SDS011;11516;51.612;7.510;2022-08-01T13:39:03;4.07;;;3.22;;
22697;SDS011;11516;51.612;7.510;2022-08-01T13:41:48;3.40;;;2.97;;
22697;SDS011;11516;51.612;7.510;2022-08-01T13:44:14;1.38;;;1.27;;
22697;SDS011;11516;51.612;7.510;2022-08-01T13:46:46;1.33;;;1.20;;
22697;SDS011;11516;51.612;7.510;2022-08-01T13:49:12;1.80;;;1.20;;
22697;SDS011;11516;51.612;7.510;2022-08-01T13:51:38;1.70;;;1.50;;
22697;SDS011;11516;51.612;7.510;2022-08-01T13:54:06;1.67;;;1.50;;
22697;SDS011;11516;51.612;7.510;2022-08-01T13:56:34;2.60;;;1.50;;
22697;SDS011;11516;51.612;7.510;2022-08-01T13:59:00;1.70;;;1.30;;
22697;SDS011;11516;51.612;7.510;2022-08-01T14:01:26;1.98;;;1.67;;
22697;SDS011;11516;51.612;7.510;2022-08-01T14:03:51;1.85;;;1.38;;
22697;SDS011;11516;51.612;7.510;2022-08-01T14:06:17;1.80;;;1.60;;
22697;SDS011;11516;51.612;7.510;2022-08-01T14:08:45;2.28;;;1.90;;
22697;SDS011;11516;51.612;7.510;2022-08-01T14:11:11;1.92;;;1.50;;
22697;SDS011;11516;51.612;7.510;2022-08-01T14:13:37;2.45;;;1.60;;
22697;SDS011;11516;51.612;7.510;2022-08-01T14:16:04;1.80;;;1.60;;
22697;SDS011;11516;51.612;7.510;2022-08-01T14:18:30;1.92;;;1.23;;
22697;SDS011;11516;51.612;7.510;2022-08-01T14:20:56;3.72;;;1.50;;
22697;SDS011;11516;51.612;7.510;2022-08-01T14:23:22;1.75;;;1.40;;
22697;SDS011;11516;51.612;7.510;2022-08-01T14:25:48;1.88;;;1.17;;
22697;SDS011;11516;51.612;7.510;2022-08-01T14:28:16;2.60;;;1.10;;
22697;SDS011;11516;51.612;7.510;2022-08-01T14:30:42;2.72;;;1.25;;
22697;SDS011;11516;51.612;7.510;2022-08-01T14:33:08;1.87;;;1.40;;
22697;SDS011;11516;51.612;7.510;2022-08-01T14:35:37;4.68;;;2.60;;
22697;SDS011;11516;51.612;7.510;2022-08-01T14:38:03;3.65;;;1.67;;
22697;SDS011;11516;51.612;7.510;2022-08-01T14:40:28;2.60;;;1.60;;
22697;SDS011;11516;51.612;7.510;2022-08-01T14:42:54;2.13;;;1.70;;
22697;SDS011;11516;51.612;7.510;2022-08-01T14:45:20;2.08;;;1.55;;
22697;SDS011;11516;51.612;7.510;2022-08-01T14:47:46;3.05;;;1.52;;
22697;SDS011;11516;51.612;7.510;2022-08-01T14:50:12;5.38;;;1.98;;
22697;SDS011;11516;51.612;7.510;2022-08-01T14:52:39;2.95;;;1.30;;
22697;SDS011;11516;51.612;7.510;2022-08-01T14:55:06;2.28;;;1.70;;
22697;SDS011;11516;51.612;7.510;2022-08-01T14:57:32;3.00;;;1.77;;
22697;SDS011;11516;51.612;7.510;2022-08-01T14:59:58;3.83;;;1.67;;
22697;SDS011;11516;51.612;7.510;2022-08-01T15:02:24;2.73;;;1.47;;
22697;SDS011;11516;51.612;7.510;2022-08-01T15:04:50;1.63;;;1.53;;
22697;SDS011;11516;51.612;7.510;2022-08-01T15:07:16;3.05;;;1.80;;
22697;SDS011;11516;51.612;7.510;2022-08-01T15:09:43;2.95;;;1.75;;
22697;SDS011;11516;51.612;7.510;2022-08-01T15:12:10;1.48;;;1.33;;
22697;SDS011;11516;51.612;7.510;2022-08-01T15:14:36;3.17;;;1.60;;
22697;SDS011;11516;51.612;7.510;2022-08-01T15:19:40;2.05;;;1.60;;
22697;SDS011;11516;51.612;7.510;2022-08-01T15:22:05;3.83;;;2.80;;
22697;SDS011;11516;51.612;7.510;2022-08-01T15:24:31;6.60;;;4.87;;
22697;SDS011;11516;51.612;7.510;2022-08-01T15:26:56;2.27;;;1.87;;
22697;SDS011;11516;51.612;7.510;2022-08-01T15:29:22;2.60;;;2.15;;
22697;SDS011;11516;51.612;7.510;2022-08-01T15:31:48;2.80;;;2.03;;
22697;SDS011;11516;51.612;7.510;2022-08-01T15:34:13;2.78;;;2.10;;
22697;SDS011;11516;51.612;7.510;2022-08-01T15:36:39;3.07;;;2.17;;
22697;SDS011;11516;51.612;7.510;2022-08-01T15:39:04;2.63;;;1.83;;